sensor_id;sensor_type;location;lat;lon;timestamp;P1;durP1;ratioP1;P2;durP2;ratioP2
51852;SDS011;37894;53.172;6.598;2023-12-20T00:01:29;16.35;;;2.58;;
51852;SDS011;37894;53.172;6.598;2023-12-20T00:03:56;6.30;;;1.85;;
51852;SDS011;37894;53.172;6.598;2023-12-20T00:06:21;12.93;;;2.83;;
51852;SDS011;37894;53.172;6.598;2023-12-20T00:08:47;18.52;;;1.88;;
51852;SDS011;37894;53.172;6.598;2023-12-20T00:11:13;14.32;;;2.10;;
51852;SDS011;37894;53.172;6.598;2023-12-20T00:13:39;12.25;;;2.20;;
51852;SDS011;37894;53.172;6.598;2023-12-20T00:16:05;14.13;;;3.00;;
51852;SDS011;37894;53.172;6.598;2023-12-20T00:18:31;14.73;;;2.85;;
51852;SDS011;37894;53.172;6.598;2023-12-20T00:20:56;12.00;;;2.15;;
51852;SDS011;37894;53.172;6.598;2023-12-20T00:23:22;21.73;;;2.28;;
51852;SDS011;37894;53.172;6.598;2023-12-20T00:25:48;9.70;;;2.30;;
51852;SDS011;37894;53.172;6.598;2023-12-20T00:28:14;17.60;;;2.30;;
51852;SDS011;37894;53.172;6.598;2023-12-20T00:30:40;18.70;;;2.50;;
51852;SDS011;37894;53.172;6.598;2023-12-20T00:33:06;18.77;;;3.13;;
51852;SDS011;37894;53.172;6.598;2023-12-20T00:35:32;12.77;;;2.30;;
51852;SDS011;37894;53.172;6.598;2023-12-20T00:37:58;12.15;;;2.47;;
51852;SDS011;37894;53.172;6.598;2023-12-20T00:40:24;15.93;;;3.55;;
51852;SDS011;37894;53.172;6.598;2023-12-20T00:42:50;13.57;;;2.20;;
51852;SDS011;37894;53.172;6.598;2023-12-20T00:45:16;11.13;;;2.28;;
51852;SDS011;37894;53.172;6.598;2023-12-20T00:47:41;14.50;;;2.80;;
51852;SDS011;37894;53.172;6.598;2023-12-20T00:50:08;15.05;;;2.20;;
51852;SDS011;37894;53.172;6.598;2023-12-20T00:52:34;12.20;;;1.98;;
51852;SDS011;37894;53.172;6.598;2023-12-20T00:55:00;12.68;;;2.00;;
51852;SDS011;37894;53.172;6.598;2023-12-20T00:57:26;12.43;;;2.13;;
51852;SDS011;37894;53.172;6.598;2023-12-20T00:59:52;20.13;;;2.45;;
51852;SDS011;37894;53.172;6.598;2023-12-20T01:02:17;17.10;;;2.80;;
51852;SDS011;37894;53.172;6.598;2023-12-20T01:04:44;13.00;;;2.75;;
51852;SDS011;37894;53.172;6.598;2023-12-20T01:07:10;26.88;;;3.00;;
51852;SDS011;37894;53.172;6.598;2023-12-20T01:09:36;15.70;;;3.15;;
51852;SDS011;37894;53.172;6.598;2023-12-20T01:12:01;15.45;;;2.78;;
51852;SDS011;37894;53.172;6.598;2023-12-20T01:14:27;13.73;;;2.20;;
51852;SDS011;37894;53.172;6.598;2023-12-20T01:16:53;11.13;;;2.42;;
51852;SDS011;37894;53.172;6.598;2023-12-20T01:19:19;16.10;;;2.50;;
51852;SDS011;37894;53.172;6.598;2023-12-20T01:21:45;18.40;;;4.10;;
51852;SDS011;37894;53.172;6.598;2023-12-20T01:24:11;11.65;;;2.83;;
51852;SDS011;37894;53.172;6.598;2023-12-20T01:26:36;16.23;;;2.45;;
51852;SDS011;37894;53.172;6.598;2023-12-20T01:29:03;18.90;;;4.68;;
51852;SDS011;37894;53.172;6.598;2023-12-20T01:31:28;10.25;;;2.35;;
51852;SDS011;37894;53.172;6.598;2023-12-20T01:33:54;14.98;;;2.58;;
51852;SDS011;37894;53.172;6.598;2023-12-20T01:36:20;15.18;;;2.90;;
51852;SDS011;37894;53.172;6.598;2023-12-20T01:38:46;16.50;;;3.10;;
51852;SDS011;37894;53.172;6.598;2023-12-20T01:41:12;12.35;;;2.70;;
51852;SDS011;37894;53.172;6.598;2023-12-20T01:43:38;13.02;;;2.97;;
51852;SDS011;37894;53.172;6.598;2023-12-20T01:46:04;18.17;;;3.38;;
51852;SDS011;37894;53.172;6.598;2023-12-20T01:48:30;24.75;;;4.32;;
51852;SDS011;37894;53.172;6.598;2023-12-20T01:50:59;15.95;;;2.72;;
51852;SDS011;37894;53.172;6.598;2023-12-20T01:53:25;14.77;;;3.30;;
51852;SDS011;37894;53.172;6.598;2023-12-20T01:55:54;18.83;;;3.28;;
51852;SDS011;37894;53.172;6.598;2023-12-20T01:58:21;16.65;;;2.38;;
51852;SDS011;37894;53.172;6.598;2023-12-20T02:00:48;12.18;;;2.10;;
51852;SDS011;37894;53.172;6.598;2023-12-20T02:03:14;10.38;;;2.15;;
51852;SDS011;37894;53.172;6.598;2023-12-20T02:05:40;13.10;;;2.72;;
51852;SDS011;37894;53.172;6.598;2023-12-20T02:08:06;15.93;;;2.63;;
51852;SDS011;37894;53.172;6.598;2023-12-20T02:10:32;11.32;;;1.88;;
51852;SDS011;37894;53.172;6.598;2023-12-20T02:12:58;11.75;;;2.03;;
51852;SDS011;37894;53.172;6.598;2023-12-20T02:15:23;10.57;;;1.92;;
51852;SDS011;37894;53.172;6.598;2023-12-20T02:17:49;16.65;;;2.13;;
51852;SDS011;37894;53.172;6.598;2023-12-20T02:20:15;13.25;;;2.20;;
51852;SDS011;37894;53.172;6.598;2023-12-20T02:22:41;16.55;;;1.90;;
51852;SDS011;37894;53.172;6.598;2023-12-20T02:25:07;13.93;;;2.63;;
51852;SDS011;37894;53.172;6.598;2023-12-20T02:27:33;14.52;;;3.03;;
51852;SDS011;37894;53.172;6.598;2023-12-20T02:30:00;13.15;;;3.00;;
51852;SDS011;37894;53.172;6.598;2023-12-20T02:32:26;21.85;;;4.00;;
51852;SDS011;37894;53.172;6.598;2023-12-20T02:34:52;19.08;;;3.72;;
51852;SDS011;37894;53.172;6.598;2023-12-20T02:37:18;23.00;;;4.03;;
51852;SDS011;37894;53.172;6.598;2023-12-20T02:39:44;17.60;;;3.50;;
51852;SDS011;37894;53.172;6.598;2023-12-20T02:42:09;19.92;;;4.60;;
51852;SDS011;37894;53.172;6.598;2023-12-20T02:44:35;20.35;;;3.42;;
51852;SDS011;37894;53.172;6.598;2023-12-20T02:47:01;17.48;;;3.30;;
51852;SDS011;37894;53.172;6.598;2023-12-20T02:49:27;27.30;;;4.85;;
51852;SDS011;37894;53.172;6.598;2023-12-20T02:51:53;14.93;;;3.00;;
51852;SDS011;37894;53.172;6.598;2023-12-20T02:54:19;20.42;;;3.55;;
51852;SDS011;37894;53.172;6.598;2023-12-20T02:56:45;29.80;;;3.88;;
51852;SDS011;37894;53.172;6.598;2023-12-20T02:59:10;24.80;;;4.47;;
51852;SDS011;37894;53.172;6.598;2023-12-20T03:01:46;27.02;;;3.58;;
51852;SDS011;37894;53.172;6.598;2023-12-20T03:04:12;22.63;;;3.97;;
51852;SDS011;37894;53.172;6.598;2023-12-20T03:06:38;20.73;;;3.75;;
51852;SDS011;37894;53.172;6.598;2023-12-20T03:09:03;25.98;;;4.10;;
51852;SDS011;37894;53.172;6.598;2023-12-20T03:11:30;21.90;;;3.47;;
51852;SDS011;37894;53.172;6.598;2023-12-20T03:13:56;29.98;;;4.07;;
51852;SDS011;37894;53.172;6.598;2023-12-20T03:16:22;27.33;;;4.55;;
51852;SDS011;37894;53.172;6.598;2023-12-20T03:18:48;26.13;;;3.53;;
51852;SDS011;37894;53.172;6.598;2023-12-20T03:21:14;18.45;;;3.50;;
51852;SDS011;37894;53.172;6.598;2023-12-20T03:23:40;20.17;;;4.05;;
51852;SDS011;37894;53.172;6.598;2023-12-20T03:26:09;23.50;;;3.60;;
51852;SDS011;37894;53.172;6.598;2023-12-20T03:28:35;24.70;;;4.03;;
51852;SDS011;37894;53.172;6.598;2023-12-20T03:31:02;27.73;;;4.78;;
51852;SDS011;37894;53.172;6.598;2023-12-20T03:33:28;17.88;;;3.50;;
51852;SDS011;37894;53.172;6.598;2023-12-20T03:35:54;23.23;;;3.97;;
51852;SDS011;37894;53.172;6.598;2023-12-20T03:38:20;22.92;;;4.63;;
51852;SDS011;37894;53.172;6.598;2023-12-20T03:40:46;29.00;;;4.18;;
51852;SDS011;37894;53.172;6.598;2023-12-20T03:43:12;17.70;;;4.10;;
51852;SDS011;37894;53.172;6.598;2023-12-20T03:45:38;20.50;;;3.17;;
51852;SDS011;37894;53.172;6.598;2023-12-20T03:48:04;21.48;;;4.10;;
51852;SDS011;37894;53.172;6.598;2023-12-20T03:50:30;23.73;;;4.40;;
51852;SDS011;37894;53.172;6.598;2023-12-20T03:52:57;24.38;;;4.22;;
51852;SDS011;37894;53.172;6.598;2023-12-20T03:55:23;18.50;;;4.65;;
51852;SDS011;37894;53.172;6.598;2023-12-20T03:57:49;34.05;;;5.82;;
51852;SDS011;37894;53.172;6.598;2023-12-20T04:00:15;24.90;;;4.72;;
51852;SDS011;37894;53.172;6.598;2023-12-20T04:02:41;27.38;;;3.92;;
51852;SDS011;37894;53.172;6.598;2023-12-20T04:05:07;26.10;;;4.40;;
51852;SDS011;37894;53.172;6.598;2023-12-20T04:07:34;24.30;;;4.00;;
51852;SDS011;37894;53.172;6.598;2023-12-20T04:10:01;24.23;;;4.65;;
51852;SDS011;37894;53.172;6.598;2023-12-20T04:12:28;38.50;;;7.65;;
51852;SDS011;37894;53.172;6.598;2023-12-20T04:14:55;23.25;;;4.30;;
51852;SDS011;37894;53.172;6.598;2023-12-20T04:17:21;30.85;;;4.50;;
51852;SDS011;37894;53.172;6.598;2023-12-20T04:19:48;28.58;;;5.30;;
51852;SDS011;37894;53.172;6.598;2023-12-20T04:22:14;28.80;;;4.47;;
51852;SDS011;37894;53.172;6.598;2023-12-20T04:24:40;25.08;;;4.60;;
51852;SDS011;37894;53.172;6.598;2023-12-20T04:27:07;21.23;;;3.70;;
51852;SDS011;37894;53.172;6.598;2023-12-20T04:29:33;20.55;;;3.80;;
51852;SDS011;37894;53.172;6.598;2023-12-20T04:31:59;27.23;;;4.15;;
51852;SDS011;37894;53.172;6.598;2023-12-20T04:34:25;25.00;;;4.03;;
51852;SDS011;37894;53.172;6.598;2023-12-20T04:36:52;24.80;;;5.00;;
51852;SDS011;37894;53.172;6.598;2023-12-20T04:39:17;22.38;;;3.65;;
51852;SDS011;37894;53.172;6.598;2023-12-20T04:41:44;24.52;;;3.92;;
51852;SDS011;37894;53.172;6.598;2023-12-20T04:44:09;42.72;;;4.50;;
51852;SDS011;37894;53.172;6.598;2023-12-20T04:46:35;26.27;;;3.42;;
51852;SDS011;37894;53.172;6.598;2023-12-20T04:49:01;22.85;;;4.57;;
51852;SDS011;37894;53.172;6.598;2023-12-20T04:51:27;26.52;;;3.90;;
51852;SDS011;37894;53.172;6.598;2023-12-20T04:53:53;21.92;;;3.50;;
51852;SDS011;37894;53.172;6.598;2023-12-20T04:56:19;27.08;;;4.72;;
51852;SDS011;37894;53.172;6.598;2023-12-20T04:58:44;19.55;;;3.92;;
51852;SDS011;37894;53.172;6.598;2023-12-20T05:01:10;18.08;;;3.95;;
51852;SDS011;37894;53.172;6.598;2023-12-20T05:03:37;28.98;;;4.50;;
51852;SDS011;37894;53.172;6.598;2023-12-20T05:06:02;21.27;;;3.70;;
51852;SDS011;37894;53.172;6.598;2023-12-20T05:08:28;19.77;;;5.22;;
51852;SDS011;37894;53.172;6.598;2023-12-20T05:10:54;32.28;;;4.20;;
51852;SDS011;37894;53.172;6.598;2023-12-20T05:13:20;22.58;;;4.65;;
51852;SDS011;37894;53.172;6.598;2023-12-20T05:15:46;22.50;;;4.32;;
51852;SDS011;37894;53.172;6.598;2023-12-20T05:18:13;18.85;;;4.03;;
51852;SDS011;37894;53.172;6.598;2023-12-20T05:20:39;25.60;;;4.07;;
51852;SDS011;37894;53.172;6.598;2023-12-20T05:23:05;25.42;;;5.95;;
51852;SDS011;37894;53.172;6.598;2023-12-20T05:25:31;26.08;;;4.13;;
51852;SDS011;37894;53.172;6.598;2023-12-20T05:27:56;25.23;;;3.88;;
51852;SDS011;37894;53.172;6.598;2023-12-20T05:30:22;23.45;;;4.07;;
51852;SDS011;37894;53.172;6.598;2023-12-20T05:32:48;28.42;;;4.70;;
51852;SDS011;37894;53.172;6.598;2023-12-20T05:35:14;30.88;;;4.10;;
51852;SDS011;37894;53.172;6.598;2023-12-20T05:37:40;29.70;;;3.92;;
51852;SDS011;37894;53.172;6.598;2023-12-20T05:40:07;33.65;;;4.30;;
51852;SDS011;37894;53.172;6.598;2023-12-20T05:42:38;29.90;;;3.88;;
51852;SDS011;37894;53.172;6.598;2023-12-20T05:45:04;19.65;;;4.07;;
51852;SDS011;37894;53.172;6.598;2023-12-20T05:47:31;25.23;;;4.15;;
51852;SDS011;37894;53.172;6.598;2023-12-20T05:49:57;25.65;;;3.65;;
51852;SDS011;37894;53.172;6.598;2023-12-20T05:52:22;27.80;;;4.70;;
51852;SDS011;37894;53.172;6.598;2023-12-20T05:54:48;22.60;;;4.78;;
51852;SDS011;37894;53.172;6.598;2023-12-20T05:57:14;15.55;;;4.07;;
51852;SDS011;37894;53.172;6.598;2023-12-20T05:59:40;15.10;;;4.40;;
51852;SDS011;37894;53.172;6.598;2023-12-20T06:02:05;35.90;;;5.10;;
51852;SDS011;37894;53.172;6.598;2023-12-20T06:04:32;28.88;;;5.35;;
51852;SDS011;37894;53.172;6.598;2023-12-20T06:06:58;22.52;;;4.03;;
51852;SDS011;37894;53.172;6.598;2023-12-20T06:09:24;19.30;;;3.67;;
51852;SDS011;37894;53.172;6.598;2023-12-20T06:11:51;22.20;;;4.18;;
51852;SDS011;37894;53.172;6.598;2023-12-20T06:14:17;24.10;;;4.18;;
51852;SDS011;37894;53.172;6.598;2023-12-20T06:16:43;28.60;;;4.63;;
51852;SDS011;37894;53.172;6.598;2023-12-20T06:19:10;22.85;;;4.10;;
51852;SDS011;37894;53.172;6.598;2023-12-20T06:21:35;23.60;;;4.28;;
51852;SDS011;37894;53.172;6.598;2023-12-20T06:24:01;26.27;;;5.10;;
51852;SDS011;37894;53.172;6.598;2023-12-20T06:26:27;27.85;;;4.07;;
51852;SDS011;37894;53.172;6.598;2023-12-20T06:28:53;35.25;;;4.43;;
51852;SDS011;37894;53.172;6.598;2023-12-20T06:31:19;28.13;;;4.22;;
51852;SDS011;37894;53.172;6.598;2023-12-20T06:33:44;23.65;;;4.60;;
51852;SDS011;37894;53.172;6.598;2023-12-20T06:36:11;16.98;;;3.58;;
51852;SDS011;37894;53.172;6.598;2023-12-20T06:38:38;27.55;;;3.80;;
51852;SDS011;37894;53.172;6.598;2023-12-20T06:41:04;34.75;;;4.82;;
51852;SDS011;37894;53.172;6.598;2023-12-20T06:43:30;22.17;;;4.55;;
51852;SDS011;37894;53.172;6.598;2023-12-20T06:45:56;20.23;;;4.22;;
51852;SDS011;37894;53.172;6.598;2023-12-20T06:48:22;25.58;;;5.00;;
51852;SDS011;37894;53.172;6.598;2023-12-20T06:50:47;20.23;;;3.92;;
51852;SDS011;37894;53.172;6.598;2023-12-20T06:53:13;25.13;;;4.40;;
51852;SDS011;37894;53.172;6.598;2023-12-20T06:55:39;19.85;;;4.22;;
51852;SDS011;37894;53.172;6.598;2023-12-20T06:58:05;20.73;;;4.45;;
51852;SDS011;37894;53.172;6.598;2023-12-20T07:00:32;18.73;;;3.35;;
51852;SDS011;37894;53.172;6.598;2023-12-20T07:02:58;24.90;;;4.25;;
51852;SDS011;37894;53.172;6.598;2023-12-20T07:05:24;28.10;;;5.53;;
51852;SDS011;37894;53.172;6.598;2023-12-20T07:07:50;28.55;;;4.80;;
51852;SDS011;37894;53.172;6.598;2023-12-20T07:10:16;21.10;;;4.22;;
51852;SDS011;37894;53.172;6.598;2023-12-20T07:12:42;21.90;;;3.72;;
51852;SDS011;37894;53.172;6.598;2023-12-20T07:15:09;24.13;;;3.92;;
51852;SDS011;37894;53.172;6.598;2023-12-20T07:17:35;23.60;;;3.95;;
51852;SDS011;37894;53.172;6.598;2023-12-20T07:20:01;26.60;;;4.38;;
51852;SDS011;37894;53.172;6.598;2023-12-20T07:22:32;21.02;;;4.78;;
51852;SDS011;37894;53.172;6.598;2023-12-20T07:24:58;21.55;;;3.97;;
51852;SDS011;37894;53.172;6.598;2023-12-20T07:27:25;26.90;;;3.85;;
51852;SDS011;37894;53.172;6.598;2023-12-20T07:29:51;16.85;;;4.03;;
51852;SDS011;37894;53.172;6.598;2023-12-20T07:32:17;20.90;;;4.47;;
51852;SDS011;37894;53.172;6.598;2023-12-20T07:34:42;15.00;;;3.78;;
51852;SDS011;37894;53.172;6.598;2023-12-20T07:37:08;19.85;;;4.18;;
51852;SDS011;37894;53.172;6.598;2023-12-20T07:39:39;19.35;;;4.75;;
51852;SDS011;37894;53.172;6.598;2023-12-20T07:42:05;27.33;;;3.97;;
51852;SDS011;37894;53.172;6.598;2023-12-20T07:44:31;27.75;;;5.13;;
51852;SDS011;37894;53.172;6.598;2023-12-20T07:46:57;26.45;;;4.90;;
51852;SDS011;37894;53.172;6.598;2023-12-20T07:49:23;20.95;;;3.72;;
51852;SDS011;37894;53.172;6.598;2023-12-20T07:51:49;26.15;;;3.80;;
51852;SDS011;37894;53.172;6.598;2023-12-20T07:54:15;26.00;;;4.50;;
51852;SDS011;37894;53.172;6.598;2023-12-20T07:56:41;20.70;;;3.20;;
51852;SDS011;37894;53.172;6.598;2023-12-20T07:59:07;17.70;;;4.07;;
51852;SDS011;37894;53.172;6.598;2023-12-20T08:01:33;21.65;;;4.18;;
51852;SDS011;37894;53.172;6.598;2023-12-20T08:03:59;21.15;;;4.20;;
51852;SDS011;37894;53.172;6.598;2023-12-20T08:06:25;14.05;;;3.53;;
51852;SDS011;37894;53.172;6.598;2023-12-20T08:08:50;17.63;;;3.65;;
51852;SDS011;37894;53.172;6.598;2023-12-20T08:11:16;27.58;;;4.43;;
51852;SDS011;37894;53.172;6.598;2023-12-20T08:13:42;23.60;;;4.43;;
51852;SDS011;37894;53.172;6.598;2023-12-20T08:16:08;20.30;;;3.70;;
51852;SDS011;37894;53.172;6.598;2023-12-20T08:18:34;20.20;;;3.85;;
51852;SDS011;37894;53.172;6.598;2023-12-20T08:21:00;15.30;;;3.22;;
51852;SDS011;37894;53.172;6.598;2023-12-20T08:23:26;18.55;;;3.95;;
51852;SDS011;37894;53.172;6.598;2023-12-20T08:25:52;19.75;;;3.92;;
51852;SDS011;37894;53.172;6.598;2023-12-20T08:28:18;18.60;;;4.10;;
51852;SDS011;37894;53.172;6.598;2023-12-20T08:30:44;21.70;;;3.85;;
51852;SDS011;37894;53.172;6.598;2023-12-20T08:33:10;27.63;;;4.20;;
51852;SDS011;37894;53.172;6.598;2023-12-20T08:35:38;22.85;;;4.07;;
51852;SDS011;37894;53.172;6.598;2023-12-20T08:38:05;19.00;;;4.03;;
51852;SDS011;37894;53.172;6.598;2023-12-20T08:40:31;24.15;;;3.67;;
51852;SDS011;37894;53.172;6.598;2023-12-20T08:42:56;20.00;;;3.95;;
51852;SDS011;37894;53.172;6.598;2023-12-20T08:45:22;18.73;;;3.50;;
51852;SDS011;37894;53.172;6.598;2023-12-20T08:47:48;20.55;;;3.65;;
51852;SDS011;37894;53.172;6.598;2023-12-20T08:50:14;19.52;;;3.40;;
51852;SDS011;37894;53.172;6.598;2023-12-20T08:52:40;12.20;;;2.80;;
51852;SDS011;37894;53.172;6.598;2023-12-20T08:55:07;9.80;;;2.33;;
51852;SDS011;37894;53.172;6.598;2023-12-20T08:57:34;9.80;;;1.48;;
51852;SDS011;37894;53.172;6.598;2023-12-20T09:00:00;6.20;;;1.30;;
51852;SDS011;37894;53.172;6.598;2023-12-20T09:02:26;8.52;;;1.80;;
51852;SDS011;37894;53.172;6.598;2023-12-20T09:04:51;6.30;;;1.33;;
51852;SDS011;37894;53.172;6.598;2023-12-20T09:07:25;6.68;;;1.60;;
51852;SDS011;37894;53.172;6.598;2023-12-20T09:09:52;7.05;;;1.35;;
51852;SDS011;37894;53.172;6.598;2023-12-20T09:12:20;12.18;;;2.25;;
51852;SDS011;37894;53.172;6.598;2023-12-20T09:14:47;10.93;;;2.33;;
51852;SDS011;37894;53.172;6.598;2023-12-20T09:17:13;14.07;;;2.78;;
51852;SDS011;37894;53.172;6.598;2023-12-20T09:19:40;12.93;;;2.70;;
51852;SDS011;37894;53.172;6.598;2023-12-20T09:22:05;12.55;;;3.72;;
51852;SDS011;37894;53.172;6.598;2023-12-20T09:24:32;10.55;;;2.40;;
51852;SDS011;37894;53.172;6.598;2023-12-20T09:26:59;11.20;;;1.92;;
51852;SDS011;37894;53.172;6.598;2023-12-20T09:29:24;10.68;;;1.17;;
51852;SDS011;37894;53.172;6.598;2023-12-20T09:31:50;5.20;;;1.33;;
51852;SDS011;37894;53.172;6.598;2023-12-20T09:34:16;8.95;;;1.35;;
51852;SDS011;37894;53.172;6.598;2023-12-20T09:36:42;9.65;;;1.50;;
51852;SDS011;37894;53.172;6.598;2023-12-20T09:39:14;9.10;;;1.10;;
51852;SDS011;37894;53.172;6.598;2023-12-20T09:41:44;6.25;;;1.02;;
51852;SDS011;37894;53.172;6.598;2023-12-20T09:44:16;10.35;;;1.52;;
51852;SDS011;37894;53.172;6.598;2023-12-20T09:46:45;8.50;;;1.50;;
51852;SDS011;37894;53.172;6.598;2023-12-20T09:49:15;7.00;;;0.90;;
51852;SDS011;37894;53.172;6.598;2023-12-20T09:51:43;3.67;;;1.00;;
51852;SDS011;37894;53.172;6.598;2023-12-20T09:54:10;6.85;;;1.27;;
51852;SDS011;37894;53.172;6.598;2023-12-20T09:56:36;5.20;;;1.13;;
51852;SDS011;37894;53.172;6.598;2023-12-20T09:59:03;6.40;;;0.95;;
51852;SDS011;37894;53.172;6.598;2023-12-20T10:01:29;6.97;;;1.30;;
51852;SDS011;37894;53.172;6.598;2023-12-20T10:03:56;9.93;;;1.73;;
51852;SDS011;37894;53.172;6.598;2023-12-20T10:06:24;5.60;;;1.48;;
51852;SDS011;37894;53.172;6.598;2023-12-20T10:08:50;8.50;;;1.50;;
51852;SDS011;37894;53.172;6.598;2023-12-20T10:11:15;9.30;;;1.80;;
51852;SDS011;37894;53.172;6.598;2023-12-20T10:13:42;7.15;;;1.27;;
51852;SDS011;37894;53.172;6.598;2023-12-20T10:16:08;13.43;;;1.60;;
51852;SDS011;37894;53.172;6.598;2023-12-20T10:18:34;13.00;;;1.88;;
51852;SDS011;37894;53.172;6.598;2023-12-20T10:21:01;10.52;;;1.75;;
51852;SDS011;37894;53.172;6.598;2023-12-20T10:23:28;11.02;;;1.27;;
51852;SDS011;37894;53.172;6.598;2023-12-20T10:25:58;9.57;;;2.08;;
51852;SDS011;37894;53.172;6.598;2023-12-20T10:28:25;11.20;;;2.47;;
51852;SDS011;37894;53.172;6.598;2023-12-20T10:30:53;9.77;;;1.90;;
51852;SDS011;37894;53.172;6.598;2023-12-20T10:33:23;15.93;;;2.20;;
51852;SDS011;37894;53.172;6.598;2023-12-20T10:35:51;9.25;;;1.40;;
51852;SDS011;37894;53.172;6.598;2023-12-20T10:38:18;9.10;;;1.50;;
51852;SDS011;37894;53.172;6.598;2023-12-20T10:40:45;9.30;;;1.50;;
51852;SDS011;37894;53.172;6.598;2023-12-20T10:43:11;12.45;;;1.55;;
51852;SDS011;37894;53.172;6.598;2023-12-20T10:45:38;8.20;;;1.63;;
51852;SDS011;37894;53.172;6.598;2023-12-20T10:48:04;10.00;;;1.77;;
51852;SDS011;37894;53.172;6.598;2023-12-20T10:50:30;7.90;;;1.83;;
51852;SDS011;37894;53.172;6.598;2023-12-20T10:52:57;10.57;;;1.75;;
51852;SDS011;37894;53.172;6.598;2023-12-20T10:55:24;13.63;;;2.08;;
51852;SDS011;37894;53.172;6.598;2023-12-20T10:57:50;12.93;;;1.75;;
51852;SDS011;37894;53.172;6.598;2023-12-20T11:00:18;8.40;;;1.85;;
51852;SDS011;37894;53.172;6.598;2023-12-20T11:02:44;9.80;;;1.88;;
51852;SDS011;37894;53.172;6.598;2023-12-20T11:07:51;12.55;;;2.38;;
51852;SDS011;37894;53.172;6.598;2023-12-20T11:10:30;14.25;;;2.25;;
51852;SDS011;37894;53.172;6.598;2023-12-20T11:13:12;11.30;;;1.75;;
51852;SDS011;37894;53.172;6.598;2023-12-20T11:15:45;15.23;;;2.33;;
51852;SDS011;37894;53.172;6.598;2023-12-20T11:18:11;12.27;;;2.22;;
51852;SDS011;37894;53.172;6.598;2023-12-20T11:20:38;15.52;;;2.35;;
51852;SDS011;37894;53.172;6.598;2023-12-20T11:23:05;13.95;;;2.22;;
51852;SDS011;37894;53.172;6.598;2023-12-20T11:28:13;10.40;;;2.13;;
51852;SDS011;37894;53.172;6.598;2023-12-20T11:30:46;12.77;;;1.90;;
51852;SDS011;37894;53.172;6.598;2023-12-20T11:33:16;20.67;;;2.97;;
51852;SDS011;37894;53.172;6.598;2023-12-20T11:35:43;21.42;;;2.22;;
51852;SDS011;37894;53.172;6.598;2023-12-20T11:38:10;12.60;;;2.53;;
51852;SDS011;37894;53.172;6.598;2023-12-20T11:40:37;15.10;;;2.83;;
51852;SDS011;37894;53.172;6.598;2023-12-20T11:43:02;9.20;;;2.08;;
51852;SDS011;37894;53.172;6.598;2023-12-20T11:45:30;13.30;;;1.98;;
51852;SDS011;37894;53.172;6.598;2023-12-20T11:47:57;22.77;;;2.92;;
51852;SDS011;37894;53.172;6.598;2023-12-20T11:50:23;16.17;;;2.35;;
51852;SDS011;37894;53.172;6.598;2023-12-20T11:52:50;14.20;;;2.42;;
51852;SDS011;37894;53.172;6.598;2023-12-20T11:55:17;14.32;;;2.45;;
51852;SDS011;37894;53.172;6.598;2023-12-20T11:57:43;15.15;;;3.13;;
51852;SDS011;37894;53.172;6.598;2023-12-20T12:00:10;12.57;;;2.83;;
51852;SDS011;37894;53.172;6.598;2023-12-20T12:02:36;16.35;;;2.60;;
51852;SDS011;37894;53.172;6.598;2023-12-20T12:05:02;11.55;;;2.67;;
51852;SDS011;37894;53.172;6.598;2023-12-20T12:07:30;17.83;;;2.88;;
51852;SDS011;37894;53.172;6.598;2023-12-20T12:09:57;21.30;;;2.55;;
51852;SDS011;37894;53.172;6.598;2023-12-20T12:12:23;9.95;;;2.42;;
51852;SDS011;37894;53.172;6.598;2023-12-20T12:14:50;23.02;;;2.80;;
51852;SDS011;37894;53.172;6.598;2023-12-20T12:17:16;16.17;;;2.55;;
51852;SDS011;37894;53.172;6.598;2023-12-20T12:19:42;12.98;;;2.67;;
51852;SDS011;37894;53.172;6.598;2023-12-20T12:22:10;16.98;;;2.67;;
51852;SDS011;37894;53.172;6.598;2023-12-20T12:24:41;14.63;;;2.88;;
51852;SDS011;37894;53.172;6.598;2023-12-20T12:27:08;16.42;;;2.38;;
51852;SDS011;37894;53.172;6.598;2023-12-20T12:29:34;15.40;;;2.38;;
51852;SDS011;37894;53.172;6.598;2023-12-20T12:32:01;15.70;;;2.78;;
51852;SDS011;37894;53.172;6.598;2023-12-20T12:34:34;13.75;;;3.38;;
51852;SDS011;37894;53.172;6.598;2023-12-20T12:37:01;9.82;;;2.10;;
51852;SDS011;37894;53.172;6.598;2023-12-20T12:39:27;9.32;;;2.08;;
51852;SDS011;37894;53.172;6.598;2023-12-20T12:41:54;17.73;;;2.45;;
51852;SDS011;37894;53.172;6.598;2023-12-20T12:44:21;12.77;;;1.80;;
51852;SDS011;37894;53.172;6.598;2023-12-20T12:46:48;16.33;;;2.10;;
51852;SDS011;37894;53.172;6.598;2023-12-20T12:49:18;22.00;;;2.53;;
51852;SDS011;37894;53.172;6.598;2023-12-20T12:51:45;11.90;;;2.17;;
51852;SDS011;37894;53.172;6.598;2023-12-20T12:54:11;12.93;;;2.30;;
51852;SDS011;37894;53.172;6.598;2023-12-20T12:56:38;15.48;;;2.20;;
51852;SDS011;37894;53.172;6.598;2023-12-20T12:59:04;10.05;;;2.25;;
51852;SDS011;37894;53.172;6.598;2023-12-20T13:01:31;11.70;;;2.10;;
51852;SDS011;37894;53.172;6.598;2023-12-20T13:03:56;12.00;;;2.20;;
51852;SDS011;37894;53.172;6.598;2023-12-20T13:06:22;8.63;;;1.85;;
51852;SDS011;37894;53.172;6.598;2023-12-20T13:08:48;10.48;;;1.88;;
51852;SDS011;37894;53.172;6.598;2023-12-20T13:11:15;13.35;;;2.33;;
51852;SDS011;37894;53.172;6.598;2023-12-20T13:13:41;13.63;;;2.30;;
51852;SDS011;37894;53.172;6.598;2023-12-20T13:16:07;15.00;;;2.53;;
51852;SDS011;37894;53.172;6.598;2023-12-20T13:18:33;15.27;;;2.50;;
51852;SDS011;37894;53.172;6.598;2023-12-20T13:20:58;9.50;;;2.45;;
51852;SDS011;37894;53.172;6.598;2023-12-20T13:23:24;17.27;;;2.90;;
51852;SDS011;37894;53.172;6.598;2023-12-20T13:25:50;18.25;;;3.30;;
51852;SDS011;37894;53.172;6.598;2023-12-20T13:28:16;16.17;;;2.58;;
51852;SDS011;37894;53.172;6.598;2023-12-20T13:30:42;14.35;;;2.63;;
51852;SDS011;37894;53.172;6.598;2023-12-20T13:33:08;12.82;;;2.83;;
51852;SDS011;37894;53.172;6.598;2023-12-20T13:35:35;14.68;;;2.55;;
51852;SDS011;37894;53.172;6.598;2023-12-20T13:38:00;15.60;;;2.22;;
51852;SDS011;37894;53.172;6.598;2023-12-20T13:40:26;12.30;;;2.10;;
51852;SDS011;37894;53.172;6.598;2023-12-20T13:42:53;11.75;;;1.90;;
51852;SDS011;37894;53.172;6.598;2023-12-20T13:45:20;11.88;;;3.97;;
51852;SDS011;37894;53.172;6.598;2023-12-20T13:47:45;8.85;;;2.60;;
51852;SDS011;37894;53.172;6.598;2023-12-20T13:50:11;14.95;;;5.88;;
51852;SDS011;37894;53.172;6.598;2023-12-20T13:52:37;11.30;;;1.90;;
51852;SDS011;37894;53.172;6.598;2023-12-20T13:55:04;9.57;;;2.05;;
51852;SDS011;37894;53.172;6.598;2023-12-20T13:57:32;9.27;;;1.77;;
51852;SDS011;37894;53.172;6.598;2023-12-20T13:59:59;7.00;;;2.28;;
51852;SDS011;37894;53.172;6.598;2023-12-20T14:02:25;8.32;;;1.88;;
51852;SDS011;37894;53.172;6.598;2023-12-20T14:04:52;11.20;;;2.28;;
51852;SDS011;37894;53.172;6.598;2023-12-20T14:07:18;10.20;;;1.63;;
51852;SDS011;37894;53.172;6.598;2023-12-20T14:09:44;9.18;;;2.15;;
51852;SDS011;37894;53.172;6.598;2023-12-20T14:12:13;7.85;;;1.40;;
51852;SDS011;37894;53.172;6.598;2023-12-20T14:14:39;12.93;;;1.80;;
51852;SDS011;37894;53.172;6.598;2023-12-20T14:17:05;10.75;;;2.15;;
51852;SDS011;37894;53.172;6.598;2023-12-20T14:19:31;8.43;;;1.70;;
51852;SDS011;37894;53.172;6.598;2023-12-20T14:21:57;5.43;;;1.33;;
51852;SDS011;37894;53.172;6.598;2023-12-20T14:24:26;6.43;;;1.58;;
51852;SDS011;37894;53.172;6.598;2023-12-20T14:26:52;6.28;;;1.70;;
51852;SDS011;37894;53.172;6.598;2023-12-20T14:29:18;7.43;;;2.08;;
51852;SDS011;37894;53.172;6.598;2023-12-20T14:31:44;7.55;;;1.95;;
51852;SDS011;37894;53.172;6.598;2023-12-20T14:34:10;14.38;;;2.20;;
51852;SDS011;37894;53.172;6.598;2023-12-20T14:36:37;9.15;;;1.73;;